createdAt,value
2023-05-19T00:02:27.420Z,59.26
2023-05-19T00:05:15.053Z,59.16
2023-05-19T00:07:51.178Z,59.16
2023-05-19T00:10:40.024Z,59.09
2023-05-19T00:13:14.129Z,59.08
2023-05-19T00:16:02.136Z,59.40
2023-05-19T00:18:35.136Z,60.02
2023-05-19T00:21:23.094Z,60.56
2023-05-19T00:23:57.092Z,60.66
2023-05-19T00:26:43.972Z,60.66
2023-05-19T00:29:18.785Z,60.48
2023-05-19T00:32:05.986Z,60.46
2023-05-19T00:34:40.058Z,60.44
2023-05-19T00:37:26.961Z,60.41
2023-05-19T00:40:00.016Z,60.40
2023-05-19T00:42:48.326Z,60.43
2023-05-19T00:45:22.064Z,60.84
2023-05-19T00:48:08.987Z,61.70
2023-05-19T00:50:43.049Z,62.33
2023-05-19T00:53:30.910Z,62.26
2023-05-19T00:56:05.058Z,62.07
2023-05-19T00:58:52.027Z,62.01
2023-05-19T01:01:27.085Z,61.99
2023-05-19T01:04:23.894Z,61.95
2023-05-19T01:07:17.865Z,61.90
2023-05-19T01:10:04.942Z,61.79
2023-05-19T01:12:38.024Z,62.41
2023-05-19T01:15:24.879Z,63.35
2023-05-19T01:18:13.121Z,63.70
2023-05-19T01:21:11.895Z,63.57
2023-05-19T01:23:58.050Z,63.48
2023-05-19T01:27:33.093Z,63.46
2023-05-19T01:30:32.301Z,63.45
2023-05-19T01:33:22.861Z,63.74
2023-05-19T01:36:03.986Z,64.58
2023-05-19T01:38:45.828Z,65.00
2023-05-19T01:41:29.720Z,64.94
2023-05-19T01:44:10.684Z,64.77
2023-05-19T01:46:51.920Z,64.62
2023-05-19T01:49:31.816Z,64.53
2023-05-19T01:52:11.865Z,64.65
2023-05-19T01:54:58.774Z,64.83
2023-05-19T01:58:01.969Z,65.34
2023-05-19T02:00:59.852Z,65.75
2023-05-19T02:03:48.876Z,65.93
2023-05-19T02:06:52.810Z,65.82
2023-05-19T02:09:37.920Z,65.62
2023-05-19T02:12:46.780Z,65.38
2023-05-19T02:15:26.901Z,65.29
2023-05-19T02:18:17.774Z,65.72
2023-05-19T02:20:52.407Z,66.35
2023-05-19T02:23:39.915Z,66.61
2023-05-19T02:26:19.864Z,66.55
2023-05-19T02:28:59.767Z,66.42
2023-05-19T02:31:39.879Z,66.27
2023-05-19T02:34:19.730Z,66.22
2023-05-19T02:36:59.930Z,66.12
2023-05-19T02:39:41.727Z,66.59
2023-05-19T02:42:21.868Z,67.20
2023-05-19T02:45:01.922Z,67.37
2023-05-19T02:47:41.941Z,67.48
2023-05-19T02:50:21.666Z,67.30
2023-05-19T02:53:02.714Z,67.18
2023-05-19T02:55:43.660Z,67.04
2023-05-19T02:58:23.815Z,67.43
2023-05-19T03:01:03.659Z,68.01
2023-05-19T03:03:57.689Z,68.18
2023-05-19T03:06:45.731Z,68.11
2023-05-19T03:09:20.787Z,68.08
2023-05-19T03:12:10.710Z,67.86
2023-05-19T03:14:44.730Z,67.84
2023-05-19T03:17:31.794Z,68.11
2023-05-19T03:20:05.859Z,68.67
2023-05-19T03:22:52.560Z,69.16
2023-05-19T03:25:26.213Z,69.25
2023-05-19T03:28:12.595Z,69.21
2023-05-19T03:30:52.701Z,69.12
2023-05-19T03:33:36.614Z,69.02
2023-05-19T03:36:17.713Z,69.01
2023-05-19T03:38:57.610Z,69.30
2023-05-19T03:41:37.699Z,69.78
2023-05-19T03:44:17.562Z,70.01
2023-05-19T03:46:58.596Z,70.05
2023-05-19T03:50:01.694Z,69.84
2023-05-19T03:53:04.679Z,69.63
2023-05-19T03:55:51.539Z,69.70
2023-05-19T03:58:31.624Z,70.13
2023-05-19T04:01:18.651Z,70.53
2023-05-19T04:03:52.714Z,70.65
2023-05-19T04:06:40.536Z,70.66
2023-05-19T04:09:21.658Z,70.42
2023-05-19T04:12:12.481Z,70.23
2023-05-19T04:14:45.620Z,70.07
2023-05-19T04:17:33.599Z,69.98
2023-05-19T04:20:07.590Z,70.14
2023-05-19T04:22:54.502Z,70.46
2023-05-19T04:25:28.538Z,70.27
2023-05-19T04:28:15.480Z,70.06
2023-05-19T04:30:50.782Z,69.89
2023-05-19T04:33:37.518Z,69.62
2023-05-19T04:36:14.019Z,69.31
2023-05-19T04:39:01.472Z,69.15
2023-05-19T04:41:35.542Z,69.06
2023-05-19T04:44:24.385Z,68.85
2023-05-19T04:46:59.785Z,68.81
2023-05-19T04:49:46.427Z,69.26
2023-05-19T04:52:23.251Z,69.40
2023-05-19T04:55:10.464Z,69.22
2023-05-19T04:57:45.028Z,68.89
2023-05-19T05:00:32.549Z,68.76
2023-05-19T05:03:10.161Z,68.50
2023-05-19T05:05:58.341Z,68.21
2023-05-19T05:08:32.504Z,67.89
2023-05-19T05:11:20.385Z,67.54
2023-05-19T05:13:58.753Z,67.10
2023-05-19T05:16:46.467Z,66.91
2023-05-19T05:19:25.135Z,66.62
2023-05-19T05:22:13.368Z,65.97
2023-05-19T05:24:47.425Z,65.79
2023-05-19T05:27:34.286Z,65.69
2023-05-19T05:30:08.441Z,65.35
2023-05-19T05:32:56.358Z,65.16
2023-05-19T05:35:41.453Z,64.97
2023-05-19T05:38:28.310Z,64.62
2023-05-19T05:41:02.910Z,64.04
2023-05-19T05:43:50.291Z,63.64
2023-05-19T05:46:25.482Z,63.50
2023-05-19T05:49:13.297Z,63.03
2023-05-19T05:52:04.430Z,62.80
2023-05-19T05:54:58.220Z,62.39
2023-05-19T05:57:31.353Z,62.23
2023-05-19T06:00:24.676Z,62.23
2023-05-19T06:02:59.519Z,62.02
2023-05-19T06:05:46.287Z,61.78
2023-05-19T06:08:19.338Z,61.46
2023-05-19T06:11:06.237Z,61.30
2023-05-19T06:13:43.177Z,61.06
2023-05-19T06:16:41.277Z,60.86
2023-05-19T06:19:15.410Z,61.00
2023-05-19T06:22:03.149Z,60.94
2023-05-19T06:24:39.478Z,60.58
2023-05-19T06:27:26.194Z,60.31
2023-05-19T06:30:00.334Z,60.08
2023-05-19T06:32:50.256Z,59.41
2023-05-19T06:35:24.380Z,59.14
2023-05-19T06:38:11.222Z,59.35
2023-05-19T06:40:45.303Z,59.40
2023-05-19T06:43:32.059Z,59.15
2023-05-19T06:46:10.766Z,59.04
2023-05-19T06:48:57.234Z,58.61
2023-05-19T06:51:31.691Z,58.35
2023-05-19T06:54:20.180Z,58.28
2023-05-19T06:56:54.444Z,58.03
2023-05-19T06:59:44.169Z,57.77
2023-05-19T07:02:18.296Z,57.72
2023-05-19T07:05:05.082Z,56.95
2023-05-19T07:07:38.230Z,56.36
2023-05-19T07:10:29.064Z,56.53
2023-05-19T07:13:03.294Z,56.31
2023-05-19T07:15:50.090Z,55.75
2023-05-19T07:18:24.206Z,55.38
2023-05-19T07:21:11.051Z,55.09
2023-05-19T07:23:45.162Z,54.40
2023-05-19T07:26:33.086Z,52.97
2023-05-19T07:29:06.661Z,52.51
2023-05-19T07:31:54.248Z,52.42
2023-05-19T07:34:28.703Z,51.90
2023-05-19T07:37:16.025Z,51.86
2023-05-19T07:39:49.152Z,51.46
2023-05-19T07:42:36.007Z,51.23
2023-05-19T07:45:10.075Z,50.99
2023-05-19T07:47:57.054Z,50.82
2023-05-19T07:50:30.232Z,50.64
2023-05-19T07:53:17.007Z,50.53
2023-05-19T07:55:50.485Z,49.66
2023-05-19T07:58:36.984Z,49.61
2023-05-19T08:01:11.134Z,49.50
2023-05-19T08:03:58.350Z,48.94
2023-05-19T08:06:32.102Z,48.77
2023-05-19T08:09:18.959Z,48.78
2023-05-19T08:11:53.129Z,48.12
2023-05-19T08:14:41.931Z,48.55
2023-05-19T08:17:15.046Z,49.46
2023-05-19T08:20:01.942Z,50.37
2023-05-19T08:22:36.057Z,50.47
2023-05-19T08:25:22.958Z,50.87
2023-05-19T08:27:56.079Z,51.03
2023-05-19T08:30:42.955Z,51.20
2023-05-19T08:33:17.687Z,51.13
2023-05-19T08:36:04.888Z,51.34
2023-05-19T08:38:38.026Z,51.24
2023-05-19T08:41:24.939Z,51.05
2023-05-19T08:43:58.996Z,51.27
2023-05-19T08:46:45.919Z,51.61
2023-05-19T08:49:22.205Z,51.73
2023-05-19T08:52:21.864Z,51.24
2023-05-19T08:55:11.226Z,50.94
2023-05-19T08:57:58.854Z,50.47
2023-05-19T09:00:33.405Z,50.69
2023-05-19T09:03:29.126Z,50.61
2023-05-19T09:06:24.890Z,50.65
2023-05-19T09:09:12.830Z,50.90
2023-05-19T09:11:46.917Z,51.07
2023-05-19T09:14:33.804Z,51.14
2023-05-19T09:17:08.216Z,51.20
2023-05-19T09:19:55.805Z,51.41
2023-05-19T09:22:36.762Z,51.47
2023-05-19T09:25:28.736Z,51.09
2023-05-19T09:28:08.893Z,51.02
2023-05-19T09:30:48.742Z,51.26
2023-05-19T09:33:29.556Z,51.34
2023-05-19T09:36:12.748Z,51.39
2023-05-19T09:38:52.896Z,51.12
2023-05-19T09:41:32.775Z,51.32
2023-05-19T09:44:12.925Z,51.55
2023-05-19T09:46:59.749Z,51.22
2023-05-19T09:49:40.076Z,50.78
2023-05-19T09:52:22.682Z,50.45
2023-05-19T09:55:05.348Z,50.50
2023-05-19T09:57:47.662Z,50.52
2023-05-19T10:00:30.381Z,50.49
2023-05-19T10:03:11.764Z,49.85
2023-05-19T10:06:07.603Z,49.73
2023-05-19T10:08:56.703Z,49.92
2023-05-19T10:11:29.753Z,50.19
2023-05-19T10:14:16.766Z,50.37
2023-05-19T10:16:53.054Z,50.34
2023-05-19T10:19:40.666Z,50.35
2023-05-19T10:22:14.803Z,50.24
2023-05-19T10:25:02.704Z,50.06
2023-05-19T10:27:54.152Z,49.88
2023-05-19T10:30:42.644Z,49.38
2023-05-19T10:33:59.603Z,49.37
2023-05-19T10:36:56.612Z,48.73
2023-05-19T10:39:39.691Z,49.31
2023-05-19T10:43:10.603Z,49.46
2023-05-19T10:46:00.808Z,48.82
2023-05-19T10:48:50.660Z,48.64
2023-05-19T10:51:24.720Z,48.81
2023-05-19T10:54:19.695Z,48.69
2023-05-19T10:56:53.641Z,48.23
2023-05-19T10:59:44.586Z,47.35
2023-05-19T11:02:56.006Z,47.73
2023-05-19T11:05:43.493Z,47.39
2023-05-19T11:08:18.832Z,47.21
2023-05-19T11:11:20.511Z,46.73
2023-05-19T11:13:57.645Z,45.75
2023-05-19T11:16:48.964Z,45.89
2023-05-19T11:19:36.653Z,45.59
2023-05-19T11:22:23.625Z,45.89
2023-05-19T11:24:57.705Z,45.97
2023-05-19T11:27:46.513Z,45.62
2023-05-19T11:30:26.645Z,45.75
2023-05-19T11:33:07.516Z,45.93
2023-05-19T11:35:49.749Z,46.07
2023-05-19T11:38:30.547Z,45.59
2023-05-19T11:41:12.220Z,45.62
2023-05-19T11:43:54.461Z,45.57
2023-05-19T11:46:34.649Z,45.53
2023-05-19T11:49:14.453Z,45.67
2023-05-19T11:51:55.692Z,45.13
2023-05-19T11:54:46.434Z,44.97
2023-05-19T11:57:26.589Z,44.50
2023-05-19T12:00:09.369Z,44.03
2023-05-19T12:02:49.546Z,44.65
2023-05-19T12:05:34.938Z,45.00
2023-05-19T12:08:19.554Z,44.98
2023-05-19T12:11:00.404Z,44.80
2023-05-19T12:13:40.960Z,44.12
2023-05-19T12:16:21.419Z,44.65
2023-05-19T12:19:02.591Z,44.00
2023-05-19T12:21:42.650Z,44.16
2023-05-19T12:24:22.486Z,43.89
2023-05-19T12:27:19.379Z,44.02
2023-05-19T12:30:02.997Z,43.57
2023-05-19T12:32:43.369Z,42.86
2023-05-19T12:35:24.907Z,42.52
2023-05-19T12:38:10.365Z,42.73
2023-05-19T12:40:51.768Z,43.01
2023-05-19T12:43:32.314Z,42.83
2023-05-19T12:46:19.498Z,42.77
2023-05-19T12:48:59.268Z,42.91
2023-05-19T12:51:39.942Z,43.36
2023-05-19T12:54:20.340Z,44.01
2023-05-19T12:57:04.408Z,44.28
2023-05-19T12:59:45.293Z,44.02
2023-05-19T13:02:26.946Z,43.77
2023-05-19T13:05:07.278Z,43.88
2023-05-19T13:07:47.888Z,44.11
2023-05-19T13:10:28.263Z,43.83
2023-05-19T13:13:10.876Z,43.58
2023-05-19T13:15:52.218Z,43.39
2023-05-19T13:18:32.738Z,43.39
2023-05-19T13:21:13.229Z,43.05
2023-05-19T13:23:53.633Z,43.56
2023-05-19T13:26:34.296Z,43.74
2023-05-19T13:29:14.364Z,43.98
2023-05-19T13:31:55.229Z,44.12
2023-05-19T13:34:36.293Z,44.31
2023-05-19T13:37:16.166Z,44.88
2023-05-19T13:39:58.561Z,44.93
2023-05-19T13:42:39.207Z,45.13
2023-05-19T13:45:19.360Z,45.65
2023-05-19T13:48:00.265Z,45.69
2023-05-19T13:50:40.278Z,45.53
2023-05-19T13:53:20.141Z,45.64
2023-05-19T13:56:00.752Z,45.73
2023-05-19T13:58:41.155Z,46.02
2023-05-19T14:01:22.228Z,46.00
2023-05-19T14:04:02.446Z,46.24
2023-05-19T14:06:43.280Z,46.28
2023-05-19T14:09:23.158Z,46.54
2023-05-19T14:12:05.348Z,46.42
2023-05-19T14:14:45.184Z,45.92
2023-05-19T14:17:25.861Z,45.97
2023-05-19T14:20:07.073Z,46.17
2023-05-19T14:22:48.186Z,46.54
2023-05-19T14:25:28.087Z,46.97
2023-05-19T14:28:08.208Z,46.93
2023-05-19T14:30:48.337Z,46.93
2023-05-19T14:33:32.772Z,47.21
2023-05-19T14:36:16.072Z,47.41
2023-05-19T14:38:57.599Z,47.77
2023-05-19T14:41:38.054Z,47.84
2023-05-19T14:44:18.166Z,48.04
2023-05-19T14:46:57.998Z,47.89
2023-05-19T14:49:39.122Z,47.95
2023-05-19T14:52:19.016Z,48.30
2023-05-19T14:54:59.125Z,48.68
2023-05-19T14:57:39.019Z,48.56
2023-05-19T15:00:20.659Z,48.61
2023-05-19T15:03:02.022Z,48.93
2023-05-19T15:05:55.937Z,48.94
2023-05-19T15:08:43.995Z,49.01
2023-05-19T15:11:17.050Z,49.22
2023-05-19T15:14:03.956Z,49.22
2023-05-19T15:16:44.107Z,49.10
2023-05-19T15:19:24.112Z,48.91
2023-05-19T15:22:04.186Z,48.69
2023-05-19T15:24:45.045Z,48.62
2023-05-19T15:27:25.092Z,48.57
2023-05-19T15:30:04.946Z,48.49
2023-05-19T15:32:45.076Z,48.27
2023-05-19T15:35:25.861Z,48.20
2023-05-19T15:38:07.177Z,48.29
2023-05-19T15:40:48.943Z,48.39
2023-05-19T15:43:29.046Z,48.54
2023-05-19T15:46:11.951Z,48.59
2023-05-19T15:48:53.004Z,48.77
2023-05-19T15:51:32.904Z,48.79
2023-05-19T15:54:12.978Z,48.88
2023-05-19T15:56:52.900Z,48.86
2023-05-19T15:59:32.989Z,48.93
2023-05-19T16:02:13.076Z,49.06
2023-05-19T16:05:06.804Z,49.19
2023-05-19T16:07:53.821Z,49.28
2023-05-19T16:10:26.960Z,49.03
2023-05-19T16:13:14.449Z,49.30
2023-05-19T16:15:48.021Z,49.55
2023-05-19T16:18:37.908Z,49.95
2023-05-19T16:21:18.063Z,50.13
2023-05-19T16:23:58.844Z,50.38
2023-05-19T16:26:38.960Z,50.79
2023-05-19T16:29:18.813Z,50.86
